Time;durP1;ratioP1;P1;durP2;ratioP2;P2;SDS_P1;SDS_P2;PMS_P1;PMS_P2;Temp;Humidity;BMP_temperature;BMP_pressure;BME280_temperature;BME280_humidity;BME280_pressure;Samples;Min_cycle;Max_cycle;Signal;HPM_P1;HPM_P2
2023/06/30 00:00:52;;;;;;;27.10;20.27;;;;;;;17.93;100.00;100053.50;5021969;28;20287;-74
2023/06/30 00:03:19;;;;;;;25.57;19.53;;;;;;;18.13;100.00;100053.22;5022035;28;20200;-74
2023/06/30 00:05:46;;;;;;;20.80;18.53;;;;;;;18.26;100.00;100067.44;5021656;28;20255;-74
2023/06/30 00:08:12;;;;;;;23.73;17.53;;;;;;;18.42;100.00;100069.22;5022139;28;20221;-74
2023/06/30 00:10:40;;;;;;;19.37;17.30;;;;;;;18.52;100.00;100088.88;5021782;28;20220;-74
2023/06/30 00:13:07;;;;;;;20.13;18.23;;;;;;;18.63;100.00;100097.06;5020918;28;20253;-74
2023/06/30 00:15:33;;;;;;;20.20;17.70;;;;;;;18.71;100.00;100107.19;4997665;28;20560;-74
2023/06/30 00:17:59;;;;;;;23.43;17.00;;;;;;;18.80;100.00;100124.34;5024030;28;20213;-74
2023/06/30 00:20:26;;;;;;;18.17;16.33;;;;;;;18.81;100.00;100126.91;5024879;28;20225;-74
2023/06/30 00:22:52;;;;;;;18.57;16.77;;;;;;;18.69;100.00;100121.41;5022978;28;20570;-74
2023/06/30 00:25:19;;;;;;;21.67;19.33;;;;;;;18.52;100.00;100112.66;5013308;28;20203;-74
2023/06/30 00:27:47;;;;;;;20.63;17.10;;;;;;;18.56;100.00;100092.22;5022551;28;20272;-74
2023/06/30 00:30:14;;;;;;;20.93;18.60;;;;;;;18.55;100.00;100082.56;5024759;28;20260;-74
2023/06/30 00:32:40;;;;;;;18.47;16.63;;;;;;;18.62;100.00;100089.22;5016438;28;20262;-74
2023/06/30 00:35:07;;;;;;;18.57;16.67;;;;;;;18.61;100.00;100088.38;5024510;28;20737;-74
2023/06/30 00:37:33;;;;;;;21.13;18.93;;;;;;;18.48;100.00;100102.38;5017163;28;20569;-74
2023/06/30 00:40:00;;;;;;;20.17;18.30;;;;;;;18.45;100.00;100079.59;5023239;28;20252;-74
2023/06/30 00:42:26;;;;;;;23.37;20.90;;;;;;;18.34;100.00;100085.50;5018248;28;20549;-74
2023/06/30 00:44:54;;;;;;;19.30;17.60;;;;;;;18.37;100.00;100077.38;4994634;28;20431;-74
2023/06/30 00:47:20;;;;;;;22.60;20.23;;;;;;;18.27;100.00;100073.56;5015132;28;20239;-74
2023/06/30 00:49:47;;;;;;;21.93;19.53;;;;;;;18.37;100.00;100061.53;5014195;28;20320;-74
2023/06/30 00:52:14;;;;;;;22.57;20.27;;;;;;;18.41;100.00;100067.50;5024657;28;20209;-74
2023/06/30 00:54:40;;;;;;;21.00;18.90;;;;;;;18.47;100.00;100083.00;5024204;28;20201;-74
2023/06/30 00:57:07;;;;;;;23.00;20.50;;;;;;;18.31;100.00;100085.66;5021119;28;20198;-74
2023/06/30 00:59:33;;;;;;;21.17;18.67;;;;;;;18.45;100.00;100084.88;5019926;28;20236;-73
2023/06/30 01:02:06;;;;;;;21.03;19.03;;;;;;;18.54;100.00;100086.16;5021237;28;20748;-74
2023/06/30 01:04:38;;;;;;;19.33;17.50;;;;;;;18.55;100.00;100088.72;5019883;28;20214;-74
2023/06/30 01:07:13;;;;;;;18.87;17.00;;;;;;;18.59;100.00;100098.19;5020769;28;20260;-74
2023/06/30 01:09:57;;;;;;;19.83;17.73;;;;;;;18.64;100.00;100111.97;5012444;28;20648;-73
2023/06/30 01:12:23;;;;;;;18.40;16.90;;;;;;;18.63;100.00;100112.03;5015130;28;20210;-75
2023/06/30 01:14:51;;;;;;;18.07;16.57;;;;;;;18.67;100.00;100110.91;4994772;28;20226;-75
2023/06/30 01:17:21;;;;;;;18.07;16.47;;;;;;;18.68;100.00;100125.84;5014065;28;20210;-75
2023/06/30 01:19:50;;;;;;;18.80;16.90;;;;;;;18.71;100.00;100133.63;5013325;28;20223;-75
2023/06/30 01:22:24;;;;;;;19.73;17.73;;;;;;;18.76;100.00;100136.00;5019050;28;20206;-74
2023/06/30 01:24:56;;;;;;;18.97;17.17;;;;;;;18.75;100.00;100142.22;5020134;28;20624;-74
2023/06/30 01:27:23;;;;;;;19.63;17.63;;;;;;;18.68;100.00;100131.16;5020482;28;20203;-74
2023/06/30 01:29:50;;;;;;;18.70;16.83;;;;;;;18.72;100.00;100127.38;5020405;28;20299;-74
2023/06/30 01:32:17;;;;;;;25.07;18.60;;;;;;;18.70;100.00;100121.34;5020407;28;20205;-74
2023/06/30 01:34:46;;;;;;;21.00;18.83;;;;;;;18.62;100.00;100107.72;5020161;28;20215;-74
2023/06/30 01:37:14;;;;;;;23.60;17.00;;;;;;;18.59;100.00;100094.66;5020208;28;20202;-74
2023/06/30 01:39:41;;;;;;;29.23;20.50;;;;;;;18.44;100.00;100080.56;5020153;28;20221;-74
2023/06/30 01:42:08;;;;;;;21.53;19.40;;;;;;;18.35;100.00;100058.13;5012274;28;20226;-74
2023/06/30 01:44:36;;;;;;;19.43;17.33;;;;;;;18.38;100.00;100046.53;4996594;28;20254;-74
2023/06/30 01:47:03;;;;;;;19.53;17.40;;;;;;;18.49;100.00;100046.75;5011375;28;20271;-74
2023/06/30 01:49:30;;;;;;;18.87;17.07;;;;;;;18.55;100.00;100048.19;5019902;28;20225;-74
2023/06/30 01:51:57;;;;;;;17.47;15.97;;;;;;;18.60;100.00;100041.69;5019685;28;20241;-74
2023/06/30 01:54:24;;;;;;;20.63;18.93;;;;;;;18.62;100.00;100054.84;5018001;28;20205;-74
2023/06/30 01:56:51;;;;;;;19.83;18.03;;;;;;;18.63;100.00;100056.53;5022193;28;20545;-74
2023/06/30 01:59:17;;;;;;;18.80;16.90;;;;;;;18.66;100.00;100059.00;5016522;28;20278;-74
2023/06/30 02:01:44;;;;;;;21.13;18.90;;;;;;;18.57;100.00;100062.19;5023305;28;20279;-74
2023/06/30 02:04:10;;;;;;;20.33;18.40;;;;;;;18.60;100.00;100051.44;5015948;28;20251;-75
2023/06/30 02:06:37;;;;;;;30.67;23.87;;;;;;;18.40;100.00;100044.66;5023011;28;20197;-74
2023/06/30 02:09:05;;;;;;;30.40;23.77;;;;;;;18.20;100.00;100032.59;5014917;28;20709;-74
2023/06/30 02:11:31;;;;;;;28.17;24.57;;;;;;;17.93;100.00;99993.59;5016895;28;20275;-74
2023/06/30 02:13:58;;;;;;;27.70;23.40;;;;;;;17.88;100.00;99992.16;5007943;28;20214;-74
2023/06/30 02:16:24;;;;;;;35.40;25.63;;;;;;;17.71;100.00;99987.81;4991242;28;20272;-74
2023/06/30 02:18:54;;;;;;;38.80;26.43;;;;;;;17.67;100.00;99971.28;5012251;23;20287;-75
2023/06/30 02:21:21;;;;;;;36.30;27.07;;;;;;;17.76;100.00;99973.41;5019661;28;20242;-76
2023/06/30 02:23:47;;;;;;;33.13;24.90;;;;;;;17.70;100.00;99980.81;5019503;28;20206;-75
2023/06/30 02:26:15;;;;;;;38.93;27.87;;;;;;;17.66;100.00;99977.50;5019588;28;20252;-76
2023/06/30 02:28:41;;;;;;;34.63;26.13;;;;;;;17.62;100.00;99968.91;5019453;28;20205;-76
2023/06/30 02:31:08;;;;;;;41.33;26.17;;;;;;;17.70;100.00;99979.03;5020103;28;20210;-76
2023/06/30 02:33:34;;;;;;;37.77;26.27;;;;;;;17.63;100.00;99993.50;5019885;28;20202;-75
2023/06/30 02:36:02;;;;;;;34.80;25.90;;;;;;;17.59;100.00;99976.97;5019737;28;20225;-75
2023/06/30 02:38:29;;;;;;;36.97;26.60;;;;;;;17.60;100.00;99972.53;5019723;28;20198;-75
2023/06/30 02:40:55;;;;;;;41.20;27.20;;;;;;;17.52;100.00;99969.47;5019613;28;20272;-75
2023/06/30 02:43:23;;;;;;;39.83;28.03;;;;;;;17.45;100.00;99963.72;5019712;28;20260;-75
2023/06/30 02:45:49;;;;;;;44.60;27.73;;;;;;;17.53;100.00;99956.22;5002557;28;20206;-75
2023/06/30 02:48:16;;;;;;;42.97;29.10;;;;;;;17.40;100.00;99966.59;5008446;28;20209;-76
2023/06/30 02:50:42;;;;;;;47.07;28.80;;;;;;;17.34;100.00;99966.91;5022942;28;20275;-75
2023/06/30 02:53:09;;;;;;;50.87;30.67;;;;;;;17.29;100.00;99981.31;5019525;28;20745;-74
2023/06/30 02:55:36;;;;;;;39.80;28.37;;;;;;;17.33;100.00;99980.22;5019332;28;20205;-75
2023/06/30 02:58:03;;;;;;;44.37;29.27;;;;;;;17.30;100.00;99975.09;5019587;28;20236;-75
2023/06/30 03:00:31;;;;;;;52.03;31.17;;;;;;;17.25;100.00;99996.47;5017489;28;20228;-75
2023/06/30 03:02:57;;;;;;;47.40;31.60;;;;;;;17.33;100.00;99996.03;5015593;28;20240;-75
2023/06/30 03:05:24;;;;;;;42.67;29.17;;;;;;;17.36;100.00;100006.41;5029695;28;20205;-76
2023/06/30 03:07:50;;;;;;;47.07;31.63;;;;;;;17.35;100.00;100010.84;5023659;28;20663;-75
2023/06/30 03:10:17;;;;;;;53.83;31.33;;;;;;;17.45;100.00;99998.00;5026077;28;20627;-75
2023/06/30 03:12:43;;;;;;;57.67;33.07;;;;;;;17.52;100.00;100011.72;5026563;28;20259;-75
2023/06/30 03:15:11;;;;;;;58.03;31.27;;;;;;;17.54;100.00;100023.03;5019205;28;20207;-75
2023/06/30 03:17:38;;;;;;;58.97;32.30;;;;;;;17.57;100.00;100029.00;5003348;28;20204;-75
2023/06/30 03:20:10;;;;;;;47.70;29.83;;;;;;;17.62;100.00;100023.47;5021750;28;20258;-75
2023/06/30 03:22:36;;;;;;;55.43;30.13;;;;;;;17.71;100.00;100032.69;5022839;28;20209;-76
2023/06/30 03:25:04;;;;;;;55.20;29.50;;;;;;;17.77;100.00;100034.97;5024741;28;20276;-76
2023/06/30 03:27:30;;;;;;;52.60;29.77;;;;;;;17.68;100.00;100039.00;5026064;28;20543;-76
2023/06/30 03:29:57;;;;;;;48.93;29.30;;;;;;;17.63;100.00;100036.59;5024762;28;20233;-76
2023/06/30 03:32:23;;;;;;;44.53;27.27;;;;;;;17.83;100.00;100051.34;5019583;28;20279;-76
2023/06/30 03:34:51;;;;;;;46.70;29.17;;;;;;;17.45;100.00;100049.00;5025532;28;20200;-75
2023/06/30 03:37:17;;;;;;;54.33;30.33;;;;;;;17.23;100.00;100045.81;5022345;28;20202;-76
2023/06/30 03:39:44;;;;;;;49.57;29.80;;;;;;;17.38;100.00;100041.47;5022218;28;20287;-75
2023/06/30 03:42:11;;;;;;;44.80;27.90;;;;;;;17.25;100.00;100057.97;5022753;28;20210;-76
2023/06/30 03:44:37;;;;;;;41.63;26.77;;;;;;;17.35;100.00;100058.34;5022290;28;20658;-76
2023/06/30 03:47:04;;;;;;;43.53;27.33;;;;;;;17.39;100.00;100062.50;4997859;28;20341;-76
2023/06/30 03:49:31;;;;;;;47.30;25.23;;;;;;;17.19;100.00;100054.81;5019894;28;20229;-75
2023/06/30 03:51:58;;;;;;;35.03;23.87;;;;;;;17.23;100.00;100070.38;5024288;28;20262;-75
2023/06/30 03:54:25;;;;;;;36.20;22.73;;;;;;;17.23;100.00;100065.13;5019242;28;20207;-75
2023/06/30 03:56:51;;;;;;;33.43;21.80;;;;;;;17.31;100.00;100071.78;5025101;28;20257;-75
2023/06/30 03:59:17;;;;;;;31.10;20.23;;;;;;;17.38;100.00;100089.84;5018041;28;20224;-76
2023/06/30 04:01:44;;;;;;;28.03;19.00;;;;;;;17.33;100.00;100081.31;5025602;28;20251;-75
2023/06/30 04:04:11;;;;;;;21.13;18.87;;;;;;;17.39;100.00;100082.78;5017301;28;20245;-76
2023/06/30 04:06:37;;;;;;;23.10;18.03;;;;;;;17.40;100.00;100076.56;5025169;28;20813;-76
2023/06/30 04:09:06;;;;;;;30.23;18.57;;;;;;;17.24;100.00;100089.69;5015308;28;20288;-76
2023/06/30 04:11:32;;;;;;;25.93;17.83;;;;;;;17.20;100.00;100096.91;5021820;28;20631;-75
2023/06/30 04:14:00;;;;;;;28.50;16.90;;;;;;;17.24;100.00;100095.84;5021809;28;20213;-75
2023/06/30 04:16:26;;;;;;;25.23;16.27;;;;;;;17.21;100.00;100098.63;5000294;28;20206;-75
2023/06/30 04:18:52;;;;;;;22.93;16.07;;;;;;;17.06;100.00;100109.97;5010754;28;20598;-75
2023/06/30 04:21:19;;;;;;;21.33;15.57;;;;;;;17.16;100.00;100100.66;5025154;28;20197;-75
2023/06/30 04:23:45;;;;;;;16.27;14.63;;;;;;;17.21;100.00;100108.34;5025325;28;20196;-76
2023/06/30 04:26:16;;;;;;;14.60;13.20;;;;;;;17.13;100.00;100106.09;5022055;28;20205;-75
2023/06/30 04:28:43;;;;;;;13.07;11.73;;;;;;;16.99;100.00;100105.97;5021680;28;20237;-75
2023/06/30 04:31:10;;;;;;;14.43;11.30;;;;;;;17.16;100.00;100108.56;5021456;28;20256;-75
2023/06/30 04:33:36;;;;;;;13.07;11.03;;;;;;;17.27;100.00;100090.41;5021416;28;20200;-76
2023/06/30 04:36:03;;;;;;;13.03;10.60;;;;;;;17.25;100.00;100110.72;5023359;28;20209;-75
2023/06/30 04:38:30;;;;;;;11.60;10.50;;;;;;;17.17;100.00;100112.06;5019584;28;20202;-75
2023/06/30 04:40:56;;;;;;;12.20;9.20;;;;;;;16.93;100.00;100107.13;5022186;28;20221;-75
2023/06/30 04:43:24;;;;;;;12.50;8.70;;;;;;;16.88;100.00;100117.88;5024822;28;20200;-76
2023/06/30 04:45:51;;;;;;;9.13;8.43;;;;;;;17.01;100.00;100125.19;5010692;28;20306;-75
2023/06/30 04:48:17;;;;;;;9.63;8.60;;;;;;;16.83;100.00;100113.78;4992996;28;20260;-75
2023/06/30 04:50:44;;;;;;;9.40;8.40;;;;;;;16.85;100.00;100125.94;5016893;28;20281;-75
2023/06/30 04:53:10;;;;;;;11.90;8.73;;;;;;;16.75;100.00;100118.53;5021222;28;20212;-75
2023/06/30 04:55:36;;;;;;;10.90;7.43;;;;;;;16.77;100.00;100132.47;5020998;28;20581;-75
2023/06/30 04:58:03;;;;;;;7.93;7.33;;;;;;;16.62;100.00;100132.31;5021460;28;20209;-75
2023/06/30 05:00:31;;;;;;;8.87;7.93;;;;;;;16.38;100.00;100134.38;5017909;28;20574;-75
2023/06/30 05:02:57;;;;;;;9.83;7.67;;;;;;;16.14;100.00;100135.53;5023423;28;20673;-75
2023/06/30 05:05:24;;;;;;;9.90;8.67;;;;;;;16.14;100.00;100141.66;5021062;28;20247;-75
2023/06/30 05:07:50;;;;;;;11.23;8.73;;;;;;;16.24;100.00;100145.56;5021003;28;20233;-75
2023/06/30 05:10:17;;;;;;;11.40;10.47;;;;;;;16.22;100.00;100143.94;5012859;28;20229;-75
2023/06/30 05:12:43;;;;;;;12.90;10.80;;;;;;;16.31;100.00;100156.66;5019743;28;20199;-75
2023/06/30 05:15:11;;;;;;;10.57;9.47;;;;;;;16.27;100.00;100170.88;5017297;28;20554;-75
2023/06/30 05:17:39;;;;;;;14.33;9.93;;;;;;;16.22;100.00;100162.38;4998987;28;20208;-75
2023/06/30 05:20:08;;;;;;;10.60;9.67;;;;;;;16.33;100.00;100165.31;5012367;28;20231;-74
2023/06/30 05:22:34;;;;;;;10.10;9.30;;;;;;;16.30;100.00;100173.38;5026619;28;20236;-75
2023/06/30 05:25:00;;;;;;;9.10;8.20;;;;;;;16.28;100.00;100168.19;5015709;28;20211;-75
2023/06/30 05:27:27;;;;;;;9.27;8.37;;;;;;;16.29;100.00;100163.78;5023609;28;20196;-75
2023/06/30 05:29:53;;;;;;;8.60;7.70;;;;;;;16.39;100.00;100195.81;5023511;28;20226;-75
2023/06/30 05:32:20;;;;;;;7.70;6.90;;;;;;;16.26;100.00;100175.31;5020778;28;20198;-75
2023/06/30 05:34:47;;;;;;;8.83;7.70;;;;;;;16.19;100.00;100186.19;5020482;28;20204;-75
2023/06/30 05:37:14;;;;;;;7.77;7.20;;;;;;;16.25;100.00;100199.06;5023342;28;20194;-75
2023/06/30 05:39:40;;;;;;;8.60;7.83;;;;;;;16.18;100.00;100201.16;5023883;28;20250;-75
2023/06/30 05:42:07;;;;;;;8.73;8.03;;;;;;;16.18;100.00;100203.78;5022060;28;20267;-74
2023/06/30 05:44:33;;;;;;;8.33;7.53;;;;;;;16.06;100.00;100183.28;5020164;28;20200;-75
2023/06/30 05:47:00;;;;;;;8.73;7.93;;;;;;;16.10;100.00;100205.06;5002894;28;20750;-75
2023/06/30 05:49:27;;;;;;;10.90;9.03;;;;;;;16.11;100.00;100220.78;5009620;28;20225;-75
2023/06/30 05:51:55;;;;;;;11.33;9.60;;;;;;;16.02;100.00;100218.59;5026035;28;20226;-80
2023/06/30 05:54:21;;;;;;;8.90;8.27;;;;;;;16.02;100.00;100223.84;5017740;28;20199;-81
2023/06/30 05:56:48;;;;;;;9.07;8.17;;;;;;;15.95;100.00;100225.88;5023620;28;20257;-80
2023/06/30 05:59:14;;;;;;;8.47;7.77;;;;;;;16.00;100.00;100238.84;5016167;28;20281;-80
2023/06/30 06:01:41;;;;;;;9.27;8.17;;;;;;;15.85;100.00;100248.28;5024419;28;20676;-79
2023/06/30 06:04:09;;;;;;;8.70;8.10;;;;;;;15.96;100.00;100247.81;5022843;28;20206;-80
2023/06/30 06:06:36;;;;;;;11.27;8.23;;;;;;;16.00;100.00;100233.59;5021257;28;20201;-78
2023/06/30 06:09:04;;;;;;;8.87;8.17;;;;;;;15.98;100.00;100251.25;5020881;28;20259;-78
2023/06/30 06:11:30;;;;;;;8.37;7.53;;;;;;;15.94;100.00;100242.63;5020731;28;20215;-79
2023/06/30 06:13:57;;;;;;;8.77;8.07;;;;;;;15.83;100.00;100252.75;5021869;28;20204;-79
2023/06/30 06:16:23;;;;;;;9.60;8.70;;;;;;;15.92;100.00;100273.41;5007550;28;20214;-79
2023/06/30 06:18:50;;;;;;;8.67;7.97;;;;;;;15.78;100.00;100284.53;5011240;28;20226;-79
2023/06/30 06:21:17;;;;;;;8.13;7.40;;;;;;;15.85;100.00;100262.28;5024664;28;20659;-79
2023/06/30 06:23:44;;;;;;;8.60;7.80;;;;;;;15.94;100.00;100294.41;5018049;28;20227;-79
2023/06/30 06:26:12;;;;;;;7.10;6.40;;;;;;;15.87;100.00;100304.34;5028310;28;20203;-80
2023/06/30 06:28:38;;;;;;;8.10;7.40;;;;;;;15.89;100.00;100313.03;5025163;28;20273;-78
2023/06/30 06:31:04;;;;;;;8.03;7.33;;;;;;;15.92;100.00;100312.91;5033381;28;20228;-78
2023/06/30 06:33:31;;;;;;;7.03;6.40;;;;;;;16.10;100.00;100308.63;5014728;28;20678;-80
2023/06/30 06:35:57;;;;;;;8.33;7.33;;;;;;;15.99;100.00;100313.47;5020969;28;20203;-78
2023/06/30 06:38:24;;;;;;;8.33;7.70;;;;;;;16.06;100.00;100300.00;5025171;28;20577;-78
2023/06/30 06:40:50;;;;;;;8.60;7.73;;;;;;;16.22;100.00;100312.50;5027996;28;20218;-77
2023/06/30 06:43:18;;;;;;;8.17;7.37;;;;;;;16.24;100.00;100306.22;5024304;28;20207;-79
2023/06/30 06:45:45;;;;;;;8.23;7.53;;;;;;;16.29;100.00;100303.38;5021876;28;20222;-77
2023/06/30 06:48:22;;;;;;;7.80;7.30;;;;;;;16.49;100.00;100299.88;5007005;28;20438;-77
2023/06/30 06:50:50;;;;;;;7.17;6.67;;;;;;;16.45;100.00;100299.13;5022542;28;20234;-76
2023/06/30 06:53:20;;;;;;;7.40;6.80;;;;;;;16.63;100.00;100312.38;5023832;28;20736;-77
2023/06/30 06:55:47;;;;;;;8.03;7.43;;;;;;;16.36;100.00;100293.44;5023518;28;20279;-77
2023/06/30 06:58:14;;;;;;;9.37;8.77;;;;;;;16.28;100.00;100280.59;5015499;28;20212;-77
2023/06/30 07:00:43;;;;;;;11.57;10.57;;;;;;;16.26;100.00;100280.66;5023610;28;20737;-77
2023/06/30 07:03:09;;;;;;;12.00;11.10;;;;;;;16.19;100.00;100296.81;5017168;28;20248;-77
2023/06/30 07:05:36;;;;;;;11.50;10.50;;;;;;;16.15;100.00;100272.38;5028719;28;20212;-77
2023/06/30 07:08:04;;;;;;;12.40;11.47;;;;;;;16.14;100.00;100275.94;5020157;28;20215;-77
2023/06/30 07:10:31;;;;;;;12.20;11.20;;;;;;;16.20;100.00;100290.63;5025361;28;20281;-77
2023/06/30 07:12:58;;;;;;;13.47;12.30;;;;;;;16.27;100.00;100295.56;5017316;28;20211;-78
2023/06/30 07:15:25;;;;;;;13.37;12.37;;;;;;;16.31;100.00;100280.44;5011894;28;20208;-77
2023/06/30 07:17:52;;;;;;;14.73;13.23;;;;;;;16.09;100.00;100277.94;5004036;28;20214;-77
2023/06/30 07:20:19;;;;;;;13.17;12.27;;;;;;;16.16;100.00;100303.06;5014207;28;20274;-77
2023/06/30 07:22:45;;;;;;;13.10;11.47;;;;;;;16.30;100.00;100289.28;5015224;28;20281;-77
2023/06/30 07:25:12;;;;;;;12.30;11.10;;;;;;;16.41;100.00;100309.88;5014742;28;20712;-77
2023/06/30 07:27:39;;;;;;;13.33;12.40;;;;;;;16.51;100.00;100302.41;5015340;28;20202;-77
2023/06/30 07:30:07;;;;;;;14.00;12.80;;;;;;;16.53;100.00;100298.78;5015111;28;20271;-77
2023/06/30 07:32:34;;;;;;;13.33;12.33;;;;;;;16.61;100.00;100315.09;5015078;28;20229;-77
2023/06/30 07:35:03;;;;;;;13.77;12.73;;;;;;;16.72;100.00;100340.09;5014864;28;20216;-77
2023/06/30 07:37:29;;;;;;;13.40;12.07;;;;;;;16.85;100.00;100301.75;5015057;28;20653;-77
2023/06/30 07:39:55;;;;;;;15.97;14.63;;;;;;;16.68;100.00;100315.66;5023495;28;20224;-77
2023/06/30 07:42:22;;;;;;;16.10;14.57;;;;;;;16.73;100.00;100316.31;5015244;28;20606;-77
2023/06/30 07:44:50;;;;;;;14.63;13.53;;;;;;;16.87;100.00;100321.81;5022939;28;20258;-77
2023/06/30 07:47:17;;;;;;;16.63;14.87;;;;;;;16.95;100.00;100328.53;4996027;28;20239;-77
2023/06/30 07:49:43;;;;;;;16.83;15.30;;;;;;;16.80;100.00;100336.19;5008811;28;20279;-77
2023/06/30 07:52:11;;;;;;;17.67;15.87;;;;;;;16.50;100.00;100332.31;5014729;28;20224;-77
2023/06/30 07:54:38;;;;;;;15.10;13.97;;;;;;;16.44;100.00;100322.91;5014884;28;20731;-77
2023/06/30 07:57:05;;;;;;;16.10;14.70;;;;;;;16.57;100.00;100318.81;5014778;28;20206;-77
2023/06/30 07:59:32;;;;;;;16.70;15.50;;;;;;;16.79;100.00;100320.47;5014957;28;20224;-77
2023/06/30 08:01:59;;;;;;;14.47;13.43;;;;;;;16.90;100.00;100315.53;5014402;28;20200;-78
2023/06/30 08:04:25;;;;;;;14.37;13.37;;;;;;;16.94;100.00;100324.16;5014607;28;20201;-77
2023/06/30 08:06:52;;;;;;;14.57;13.17;;;;;;;16.77;100.00;100319.63;5014446;28;20216;-77
2023/06/30 08:09:20;;;;;;;14.60;13.27;;;;;;;16.75;100.00;100322.38;5014343;28;20230;-78
2023/06/30 08:11:46;;;;;;;14.83;13.30;;;;;;;16.90;100.00;100325.25;5014079;28;20696;-78
2023/06/30 08:14:12;;;;;;;12.93;12.00;;;;;;;17.06;100.00;100328.84;5014396;28;20258;-78
2023/06/30 08:16:39;;;;;;;13.33;12.27;;;;;;;17.11;100.00;100333.94;5005977;28;20208;-78
2023/06/30 08:19:05;;;;;;;14.03;12.93;;;;;;;17.29;100.00;100333.03;5012253;23;20242;-78
2023/06/30 08:21:32;;;;;;;13.17;12.27;;;;;;;17.37;100.00;100335.31;4995768;28;20642;-78
2023/06/30 08:23:58;;;;;;;13.03;12.07;;;;;;;17.30;100.00;100342.66;4992449;28;20284;-77
2023/06/30 08:26:26;;;;;;;14.20;13.20;;;;;;;17.05;100.00;100333.28;4983217;28;20363;-77
2023/06/30 08:28:53;;;;;;;13.80;12.60;;;;;;;16.87;100.00;100329.72;4990893;28;20218;-78
2023/06/30 08:31:19;;;;;;;15.10;14.00;;;;;;;16.79;100.00;100341.53;4984431;28;20231;-78
2023/06/30 08:33:46;;;;;;;13.73;12.73;;;;;;;16.80;100.00;100335.31;4981479;28;20264;-77
2023/06/30 08:36:12;;;;;;;14.40;13.40;;;;;;;16.54;100.00;100331.25;4994089;28;20729;-77
2023/06/30 08:38:38;;;;;;;15.13;13.83;;;;;;;16.56;100.00;100313.59;5002416;28;20259;-77
2023/06/30 08:41:05;;;;;;;15.40;14.20;;;;;;;16.52;100.00;100310.25;4994763;28;20225;-77
2023/06/30 08:43:33;;;;;;;16.47;14.97;;;;;;;16.44;100.00;100315.84;4994562;28;20228;-77
2023/06/30 08:46:02;;;;;;;16.27;14.80;;;;;;;16.35;100.00;100305.75;4993489;28;20260;-77
2023/06/30 08:48:30;;;;;;;15.97;14.63;;;;;;;16.44;100.00;100302.69;4994166;28;20685;-77
2023/06/30 08:50:57;;;;;;;15.40;14.27;;;;;;;16.54;100.00;100336.53;4993654;28;20262;-78
2023/06/30 08:53:26;;;;;;;14.33;13.23;;;;;;;16.55;100.00;100318.03;4993743;28;20204;-77
2023/06/30 08:55:55;;;;;;;13.90;12.87;;;;;;;16.76;100.00;100310.03;4994089;28;20211;-78
2023/06/30 08:58:22;;;;;;;13.40;12.30;;;;;;;16.48;100.00;100314.78;4993566;28;20208;-77
2023/06/30 09:00:49;;;;;;;10.60;9.83;;;;;;;16.23;100.00;100320.31;4986258;28;20387;-77
2023/06/30 09:03:16;;;;;;;9.63;8.63;;;;;;;16.12;100.00;100314.66;4975720;28;20240;-77
2023/06/30 09:05:44;;;;;;;7.67;7.17;;;;;;;16.17;100.00;100330.25;4992953;28;20263;-77
2023/06/30 09:08:16;;;;;;;7.53;6.83;;;;;;;16.19;100.00;100329.25;4993302;28;20212;-77
2023/06/30 09:10:44;;;;;;;7.47;6.87;;;;;;;16.37;100.00;100343.41;4993069;28;20278;-76
2023/06/30 09:13:11;;;;;;;7.10;6.50;;;;;;;16.27;100.00;100353.50;4992698;28;20639;-77
2023/06/30 09:15:39;;;;;;;6.43;6.03;;;;;;;16.40;100.00;100339.78;4992816;28;20263;-77
2023/06/30 09:18:07;;;;;;;7.53;6.87;;;;;;;16.42;100.00;100345.84;4992877;28;20633;-77
2023/06/30 09:20:34;;;;;;;6.80;6.30;;;;;;;16.74;100.00;100354.06;4992734;28;20228;-77
2023/06/30 09:23:04;;;;;;;6.47;5.90;;;;;;;16.86;100.00;100361.44;4993105;28;20260;-77
2023/06/30 09:25:40;;;;;;;6.50;6.00;;;;;;;17.12;100.00;100369.91;4985211;28;20204;-77
2023/06/30 09:28:10;;;;;;;5.93;5.43;;;;;;;17.30;100.00;100390.13;4992825;28;20252;-77
2023/06/30 09:30:40;;;;;;;5.40;5.07;;;;;;;17.29;100.00;100427.16;4988097;28;20221;-77
2023/06/30 09:33:08;;;;;;;7.33;4.77;;;;;;;17.45;100.00;100436.06;4973604;28;20781;-77
2023/06/30 09:35:38;;;;;;;4.90;4.60;;;;;;;17.37;100.00;100470.72;4992822;28;20243;-77
2023/06/30 09:38:10;;;;;;;4.40;4.10;;;;;;;17.59;100.00;100481.13;5001072;28;20212;-77
2023/06/30 09:40:36;;;;;;;4.87;4.57;;;;;;;17.58;100.00;100500.53;4993361;28;20707;-77
2023/06/30 09:43:02;;;;;;;6.00;5.40;;;;;;;17.59;100.00;100491.69;4992688;28;20217;-78
2023/06/30 09:45:29;;;;;;;6.13;5.63;;;;;;;17.68;100.00;100490.41;4992806;28;20200;-76
2023/06/30 09:47:55;;;;;;;7.00;6.30;;;;;;;17.32;100.00;100446.31;4992455;28;20216;-77
2023/06/30 09:50:24;;;;;;;6.33;5.93;;;;;;;17.37;100.00;100438.22;4992431;28;20288;-77
2023/06/30 09:52:51;;;;;;;6.40;6.00;;;;;;;16.92;100.00;100420.94;5000455;28;20224;-77
2023/06/30 09:55:18;;;;;;;6.20;5.77;;;;;;;16.90;100.00;100388.53;5000068;28;20263;-77
2023/06/30 09:57:46;;;;;;;6.27;5.87;;;;;;;16.97;100.00;100401.34;4992483;28;20266;-77
2023/06/30 10:00:13;;;;;;;6.30;5.80;;;;;;;17.06;100.00;100421.16;4991196;28;20286;-77
2023/06/30 10:02:40;;;;;;;7.37;6.77;;;;;;;17.22;100.00;100432.72;4977660;28;20199;-77
2023/06/30 10:05:07;;;;;;;6.87;6.27;;;;;;;17.06;100.00;100395.63;4993791;28;20220;-77
2023/06/30 10:07:35;;;;;;;7.90;7.30;;;;;;;17.04;100.00;100389.56;4995550;28;20669;-78
2023/06/30 10:10:02;;;;;;;7.83;7.03;;;;;;;16.78;100.00;100364.38;4994227;28;20231;-77
2023/06/30 10:12:30;;;;;;;8.47;7.07;;;;;;;16.99;100.00;100359.94;4998517;28;20642;-77
2023/06/30 10:14:56;;;;;;;7.43;6.93;;;;;;;16.87;100.00;100349.97;5001378;28;20261;-78
2023/06/30 10:17:23;;;;;;;8.07;7.37;;;;;;;16.88;100.00;100347.25;5001338;28;20681;-77
2023/06/30 10:19:50;;;;;;;8.83;8.03;;;;;;;16.99;100.00;100322.19;5001239;28;20279;-78
2023/06/30 10:22:16;;;;;;;8.43;7.87;;;;;;;17.13;100.00;100353.19;5002529;28;20203;-77
2023/06/30 10:24:47;;;;;;;7.83;7.23;;;;;;;17.36;100.00;100366.13;5002136;28;20207;-78
2023/06/30 10:27:18;;;;;;;9.30;8.70;;;;;;;17.44;100.00;100368.34;5002786;28;20271;-78
2023/06/30 10:29:45;;;;;;;8.30;7.70;;;;;;;17.37;100.00;100388.06;5010496;28;20229;-77
2023/06/30 10:32:11;;;;;;;8.93;8.13;;;;;;;17.24;100.00;100408.91;4993255;28;20227;-78
2023/06/30 10:34:39;;;;;;;9.03;8.20;;;;;;;17.42;100.00;100420.34;4994652;28;20258;-77
2023/06/30 10:37:05;;;;;;;8.83;8.23;;;;;;;17.57;100.00;100401.16;5002038;28;20213;-77
2023/06/30 10:39:32;;;;;;;9.23;8.53;;;;;;;17.76;100.00;100327.19;5004987;28;20220;-77
2023/06/30 10:42:00;;;;;;;8.10;7.50;;;;;;;17.94;100.00;100327.19;5004806;28;20213;-77
2023/06/30 10:44:37;;;;;;;8.63;8.03;;;;;;;17.70;100.00;100417.25;5003120;28;20617;-79
2023/06/30 10:47:05;;;;;;;8.37;7.73;;;;;;;17.85;100.00;100399.81;5000804;28;20209;-76
2023/06/30 10:49:34;;;;;;;8.30;7.43;;;;;;;17.78;100.00;100430.06;5000374;28;20267;-77
2023/06/30 10:52:02;;;;;;;7.80;7.23;;;;;;;17.85;100.00;100440.28;5009029;28;20781;-79
2023/06/30 10:54:30;;;;;;;7.90;7.23;;;;;;;17.78;100.00;100452.06;5001925;28;20217;-77
2023/06/30 10:57:10;;;;;;;8.17;7.40;;;;;;;18.10;100.00;100444.38;5000804;28;20366;-77
2023/06/30 10:59:38;;;;;;;9.43;8.30;;;;;;;18.06;100.00;100427.81;5002037;28;20225;-77
2023/06/30 11:02:22;;;;;;;7.50;6.83;;;;;;;18.04;100.00;100436.75;4992909;28;20670;-77
2023/06/30 11:04:50;;;;;;;8.03;7.33;;;;;;;18.18;98.92;100481.81;4993952;28;20690;-77
2023/06/30 11:07:17;;;;;;;7.30;6.63;;;;;;;18.27;99.94;100480.50;4999364;28;20210;-77